If you wish to contribute or participate in the discussions about articles you are invited to join SKYbrary as a registered user

 Actions

Miyako Airport

From SKYbrary Wiki

ROMY
Airport
ICAO: ROMY – IATA: MMY
Summary
Name Miyako Airport
Region Asia and Pacific
Territory Japan JP.gif
Location Miyako, Okinawa Prefecture
Serving Miyakojima
Elevation 42.672 m
140 ft42.672 m
Coordinates 24° 46' 45.98" N, 125° 17' 50.95" E
Runways
Designator Length Width Surface ROPS
4/22 1999 m6,558.399 ft
46 m150.919 ft
ASP yes/yes


METAR
Observation ROMY 260300Z 05009KT 9999 -SHRA FEW010 BKN021 BKN035 27/24 Q1012
Station Miyakojima
Date/Time 26 April 2019 03:00:00
Wind direction 50°
Wind speed 09 kts
Lowest cloud amount few clouds
Temperature 27°C
Dew point 24°C
Humidity 83%
QNH 1012 hPa
Weather condition light showers rain

Miyako Airport is an airport on Miyako-jima (Miyako Island) in Miyakojima, Okinawa, Japan.

Climatology

Humid Sub-tropical climate (Köppen climate classification Cfa)

Maps

Terrain

Loading map...

Airport Layout

Loading map...


Accidents & Serious Incidents at or in vicinity of ROMY

None on SKYbrary